Airfield :
LOGIN :

Register | Disclaimer

   EN    FR    IT 

 










Legend :    VFR   Marginal VFR   IFR   Intensive IFR   Very Intensive IFR
Visi :
Ceiling :
>= 8 km
>= 3000ft
5 to 8 km
1000 to 3000 ft
1500m to 5 km
500 to 1000 ft
800 to 1500m
200 to 500 ft
< 800m
< 200 ft
Symbols :   Thunderstorms  Fog  Heavy snow  Heavy precipitations  Wind > 20 kt
SIGMETs :     Misc.  Thunderstorms  Icing  Turbulence  Mountain Waves  Volcanic Ashes







- Airport Elevation : 1188 ft


LKLN - Plzen Line

CURRENT METAR :
  • 200900Z AUTO VRB02KT 4400 -RA 14/14 Q1002 RERA

EXPIRED METARs :
  • 200856Z AUTO VRB02KT 4500 RA 14/14 Q1002
  • 200832Z AUTO 01003KT 290V060 4700 RA 14/14 Q1002
  • 200800Z AUTO VRB02KT 9999 -RA 14/13 Q1002
  • 200700Z AUTO VRB03KT 9999 15/12 Q1002

TAF N/A
No reported NOTAMs for that airfield.
1 SIGMET reported for the Praha FIR (LKAA) :
 
Embedded thunderstorms
LKAA SIGMET 1 VALID 200919/201119 LKPW
LKAA PRAHA FIR EMBD TS OBS WI N5012 E01637 - N4922 E01527 - N4939 E01458 - N5026 E01617 - N5012 E01637 TOP FL300 MOV NW INTSF=



MET'MAP, your aeronautical weather chart ! - Copyright ORBIFLY December 2007 - Disclaimer

ORBIFLY MET'MAP TEAM :

Programming & Development : Alexandra Zaïnal
Concept & Development : Baudouin d'Aumeries
Co-Development & Prog : Marc-Olivier Méhu
Technical & hardware support : Manuel Goepfert

Contact : metmap@orbifly.com




SOURCES & CREDITS :

   NOAA